Time;durP1;ratioP1;P1;durP2;ratioP2;P2;SDS_P1;SDS_P2;PMS_P1;PMS_P2;Temp;Humidity;BMP_temperature;BMP_pressure;BME280_temperature;BME280_humidity;BME280_pressure;Samples;Min_cycle;Max_cycle;Signal;HPM_P1;HPM_P2
2024/03/09 00:00:27;;;;;;;34.50;21.40;;;6.60;72.00;;;;;;5012834;28;20029;-85
2024/03/09 00:02:54;;;;;;;37.87;22.33;;;6.60;71.80;;;;;;5014306;28;20052;-85
2024/03/09 00:05:24;;;;;;;39.33;22.67;;;6.50;71.80;;;;;;5012850;28;20449;-84
2024/03/09 00:07:54;;;;;;;38.03;22.00;;;6.50;72.20;;;;;;5013907;28;20512;-83
2024/03/09 00:10:20;;;;;;;38.57;22.40;;;6.50;72.30;;;;;;5012814;28;20033;-84
2024/03/09 00:12:47;;;;;;;39.27;21.97;;;6.50;72.70;;;;;;5029100;28;20022;-84
2024/03/09 00:15:15;;;;;;;38.53;22.00;;;6.40;72.90;;;;;;5012342;28;20108;-84
2024/03/09 00:17:47;;;;;;;41.30;23.37;;;6.40;72.70;;;;;;5013578;28;20579;-84
2024/03/09 00:20:15;;;;;;;35.93;21.10;;;6.40;72.60;;;;;;5013581;28;20050;-83
2024/03/09 00:22:43;;;;;;;36.53;20.87;;;6.30;72.60;;;;;;5029084;28;20363;-84
2024/03/09 00:25:10;;;;;;;38.40;22.07;;;6.30;73.50;;;;;;5013900;28;20097;-84
2024/03/09 00:27:38;;;;;;;34.97;20.00;;;6.30;72.70;;;;;;5013585;28;20025;-85
2024/03/09 00:30:20;;;;;;;37.83;20.90;;;6.30;72.90;;;;;;5013839;28;20054;-84
2024/03/09 00:32:58;;;;;;;41.20;23.20;;;6.30;72.90;;;;;;5013806;28;20030;-83
2024/03/09 00:35:25;;;;;;;41.13;22.07;;;6.30;73.30;;;;;;5013581;28;20466;-83
2024/03/09 00:37:52;;;;;;;39.30;21.90;;;6.30;73.10;;;;;;5012131;28;20393;-82
2024/03/09 00:40:17;;;;;;;38.67;22.70;;;6.20;73.20;;;;;;5013833;28;20018;-81
2024/03/09 00:42:46;;;;;;;41.87;23.07;;;6.20;73.10;;;;;;5011865;28;20026;-81
2024/03/09 00:45:16;;;;;;;42.60;23.10;;;6.20;73.70;;;;;;5012282;28;20026;-81
2024/03/09 00:47:46;;;;;;;37.60;22.17;;;6.20;73.60;;;;;;5012148;28;20393;-82
2024/03/09 00:50:15;;;;;;;41.60;22.60;;;6.20;74.00;;;;;;5013639;28;20034;-81
2024/03/09 00:52:41;;;;;;;37.70;21.20;;;6.10;74.00;;;;;;5012092;28;20014;-81
2024/03/09 00:55:13;;;;;;;39.17;22.03;;;6.10;74.00;;;;;;5013262;28;20025;-82
2024/03/09 00:57:53;;;;;;;41.93;22.57;;;6.10;73.90;;;;;;5011947;28;20018;-82
2024/03/09 01:00:19;;;;;;;43.10;21.53;;;6.10;74.10;;;;;;5013214;28;20385;-82
2024/03/09 01:02:48;;;;;;;42.43;23.47;;;6.10;74.30;;;;;;5013353;28;20105;-82
2024/03/09 01:05:19;;;;;;;43.43;22.20;;;6.10;74.20;;;;;;5013245;28;20018;-82
2024/03/09 01:07:45;;;;;;;40.30;23.70;;;6.10;74.20;;;;;;5013013;28;20026;-82
2024/03/09 01:10:11;;;;;;;41.93;23.47;;;6.10;74.90;;;;;;5027924;28;20033;-82
2024/03/09 01:12:37;;;;;;;45.70;24.53;;;6.00;75.10;;;;;;5012898;28;20029;-82
2024/03/09 01:15:13;;;;;;;40.73;22.37;;;6.00;75.10;;;;;;5011670;28;20497;-82
2024/03/09 01:17:39;;;;;;;39.83;22.40;;;6.00;74.70;;;;;;5012557;28;20025;-82
2024/03/09 01:20:08;;;;;;;41.97;22.70;;;6.00;74.70;;;;;;5012566;28;20037;-82
2024/03/09 01:22:35;;;;;;;40.77;22.60;;;6.00;74.90;;;;;;5011348;28;20033;-82
2024/03/09 01:25:01;;;;;;;41.83;22.90;;;5.90;74.80;;;;;;5027960;28;20022;-82
2024/03/09 01:27:27;;;;;;;40.97;23.07;;;5.90;75.60;;;;;;5011534;28;20119;-82
2024/03/09 01:29:58;;;;;;;37.80;22.30;;;5.90;75.30;;;;;;5012461;28;20069;-82
2024/03/09 01:32:24;;;;;;;40.33;23.17;;;5.90;75.50;;;;;;5012881;28;20029;-80
2024/03/09 01:34:51;;;;;;;45.30;24.33;;;5.90;75.70;;;;;;5012697;28;20029;-80
2024/03/09 01:37:19;;;;;;;43.47;23.17;;;5.80;75.80;;;;;;5011455;28;20501;-80
2024/03/09 01:39:49;;;;;;;41.73;23.83;;;5.90;75.90;;;;;;5011495;28;20018;-80
2024/03/09 01:42:21;;;;;;;45.23;23.70;;;5.90;75.90;;;;;;5027570;28;20101;-79
2024/03/09 01:44:50;;;;;;;36.40;20.77;;;5.80;75.60;;;;;;5012797;28;20152;-80
2024/03/09 01:47:25;;;;;;;42.50;23.57;;;5.80;75.70;;;;;;5011508;28;20101;-79
2024/03/09 01:49:52;;;;;;;40.13;22.93;;;5.80;75.90;;;;;;5028085;28;20421;-80
2024/03/09 01:52:19;;;;;;;39.27;21.13;;;5.80;75.80;;;;;;5011485;28;20402;-82
2024/03/09 01:54:47;;;;;;;42.37;22.23;;;5.70;75.70;;;;;;5027860;28;20014;-82
2024/03/09 01:57:13;;;;;;;39.53;21.40;;;5.70;75.70;;;;;;5012319;28;20030;-81
2024/03/09 01:59:48;;;;;;;37.17;20.87;;;5.70;75.90;;;;;;5012612;28;20477;-81
2024/03/09 02:02:15;;;;;;;40.70;22.53;;;5.70;76.00;;;;;;5012740;28;20022;-82
2024/03/09 02:04:42;;;;;;;38.63;22.47;;;5.60;76.00;;;;;;5011290;28;20014;-81
2024/03/09 02:07:08;;;;;;;39.87;21.27;;;5.60;76.00;;;;;;5012588;28;20049;-81
2024/03/09 02:09:34;;;;;;;42.23;22.17;;;5.60;76.10;;;;;;5012046;28;20060;-79
2024/03/09 02:12:06;;;;;;;36.87;21.47;;;5.60;76.20;;;;;;5011694;28;20496;-79
2024/03/09 02:14:36;;;;;;;38.87;21.17;;;5.60;76.30;;;;;;5012572;28;20033;-79
2024/03/09 02:17:07;;;;;;;39.13;21.80;;;5.50;76.30;;;;;;5012141;28;20027;-79
2024/03/09 02:19:38;;;;;;;42.97;22.03;;;5.50;76.40;;;;;;5015908;28;20038;-79
2024/03/09 02:22:06;;;;;;;41.17;22.53;;;5.50;76.40;;;;;;5016044;28;20048;-79
2024/03/09 02:24:40;;;;;;;41.80;21.60;;;5.50;76.50;;;;;;5014371;28;20469;-79
2024/03/09 02:27:07;;;;;;;;;;;5.50;76.90;;;;;;5015172;28;20053;-79
2024/03/09 02:29:33;;;;;;;37.53;19.57;;;5.40;76.90;;;;;;5015686;28;20292;-79
2024/03/09 02:31:58;;;;;;;38.33;20.23;;;5.40;76.80;;;;;;5016002;28;20500;-82
2024/03/09 02:34:25;;;;;;;39.37;21.83;;;5.40;76.60;;;;;;5015990;28;20029;-81
2024/03/09 02:36:52;;;;;;;35.97;20.93;;;5.40;76.70;;;;;;5016002;28;20017;-81
2024/03/09 02:39:17;;;;;;;36.60;20.40;;;5.30;76.80;;;;;;5013924;28;20049;-81
2024/03/09 02:41:43;;;;;;;36.77;21.37;;;5.30;77.00;;;;;;5014437;28;20092;-81
2024/03/09 02:44:13;;;;;;;38.67;22.27;;;5.30;77.10;;;;;;5015900;28;20121;-82
2024/03/09 02:46:39;;;;;;;43.60;22.43;;;5.30;77.30;;;;;;5014323;28;20557;-82
2024/03/09 02:49:05;;;;;;;38.07;21.63;;;5.30;77.40;;;;;;5014473;28;20112;-82
2024/03/09 02:51:32;;;;;;;39.40;21.63;;;5.30;77.30;;;;;;5030855;28;20109;-79
2024/03/09 02:53:58;;;;;;;38.43;22.10;;;5.30;77.40;;;;;;5013799;28;20025;-79
2024/03/09 02:56:24;;;;;;;42.43;22.47;;;5.20;77.50;;;;;;5015483;28;20080;-79
2024/03/09 02:58:50;;;;;;;41.30;21.80;;;5.20;77.50;;;;;;5015273;28;20034;-79
2024/03/09 03:01:17;;;;;;;37.93;20.80;;;5.20;77.70;;;;;;5015487;28;20454;-79
2024/03/09 03:03:48;;;;;;;40.67;21.83;;;5.20;77.80;;;;;;5015472;28;20109;-79
2024/03/09 03:06:19;;;;;;;35.63;21.60;;;5.20;77.80;;;;;;5030700;28;20030;-79
2024/03/09 03:08:50;;;;;;;37.87;21.73;;;5.20;77.80;;;;;;5014806;28;20436;-81
2024/03/09 03:11:17;;;;;;;41.43;21.90;;;5.20;77.80;;;;;;5015186;28;20034;-81
2024/03/09 03:13:45;;;;;;;40.13;22.87;;;5.20;77.90;;;;;;5015574;28;20101;-81
2024/03/09 03:16:28;;;;;;;36.43;19.97;;;5.20;78.00;;;;;;5013756;28;20022;-81
2024/03/09 03:18:58;;;;;;;40.87;21.27;;;5.20;78.70;;;;;;5014507;28;20096;-80
2024/03/09 03:21:27;;;;;;;44.83;22.03;;;5.10;78.30;;;;;;5014978;28;20536;-81
2024/03/09 03:23:53;;;;;;;39.53;20.83;;;5.10;78.20;;;;;;5013457;28;20053;-80
2024/03/09 03:26:21;;;;;;;36.40;20.97;;;5.10;78.30;;;;;;5013546;28;20381;-82
2024/03/09 03:28:50;;;;;;;39.67;21.87;;;5.10;78.30;;;;;;5013582;28;20022;-81
2024/03/09 03:31:20;;;;;;;39.30;21.00;;;5.10;78.40;;;;;;5014634;28;20037;-81
2024/03/09 03:33:48;;;;;;;40.00;21.60;;;5.10;78.50;;;;;;5013156;28;20032;-81
2024/03/09 03:36:19;;;;;;;40.80;22.27;;;5.10;78.70;;;;;;5029681;28;20030;-82
2024/03/09 03:38:46;;;;;;;41.33;21.70;;;5.20;78.80;;;;;;5014804;28;20030;-81
2024/03/09 03:41:23;;;;;;;38.83;21.63;;;5.10;78.80;;;;;;5013196;28;20426;-81
2024/03/09 03:43:48;;;;;;;38.57;21.27;;;5.10;78.80;;;;;;5014634;28;20113;-81
2024/03/09 03:46:14;;;;;;;38.00;20.70;;;5.20;79.00;;;;;;5014560;28;20037;-82
2024/03/09 03:48:44;;;;;;;36.17;20.90;;;5.10;78.90;;;;;;5014408;28;20391;-81
2024/03/09 03:51:13;;;;;;;37.50;20.47;;;5.20;79.10;;;;;;5013665;28;20029;-81
2024/03/09 03:53:40;;;;;;;41.17;22.70;;;5.20;79.10;;;;;;5014825;28;20022;-81
2024/03/09 03:56:09;;;;;;;38.57;21.07;;;5.20;79.10;;;;;;5014490;28;20536;-81
2024/03/09 03:58:35;;;;;;;35.10;21.07;;;5.20;79.20;;;;;;5014007;28;20026;-81
2024/03/09 04:01:02;;;;;;;39.27;22.00;;;5.20;79.30;;;;;;5029341;28;20049;-81
2024/03/09 04:03:31;;;;;;;39.67;21.57;;;5.20;79.30;;;;;;5014428;28;20025;-82
2024/03/09 04:06:02;;;;;;;39.10;21.23;;;5.30;79.40;;;;;;5014093;28;20025;-82
2024/03/09 04:08:28;;;;;;;37.90;21.13;;;5.20;79.30;;;;;;5013866;28;20052;-82
2024/03/09 04:10:57;;;;;;;42.03;21.27;;;5.20;79.30;;;;;;5013712;28;20034;-81
2024/03/09 04:13:23;;;;;;;37.90;20.07;;;5.30;79.40;;;;;;5013909;28;20168;-82
2024/03/09 04:15:55;;;;;;;36.13;20.30;;;5.30;79.50;;;;;;5012668;28;20424;-81
2024/03/09 04:18:26;;;;;;;39.03;20.97;;;5.30;79.50;;;;;;5012490;28;20072;-81
2024/03/09 04:20:53;;;;;;;34.07;19.17;;;5.30;79.40;;;;;;5029039;28;20034;-79
2024/03/09 04:23:21;;;;;;;34.87;20.33;;;5.30;79.50;;;;;;5013882;28;20437;-79
2024/03/09 04:25:50;;;;;;;36.07;19.40;;;5.40;79.60;;;;;;5013921;28;20032;-76
2024/03/09 04:28:20;;;;;;;37.30;20.60;;;5.40;79.50;;;;;;5013645;28;20030;-78
2024/03/09 04:30:46;;;;;;;38.57;21.57;;;5.40;79.50;;;;;;5013607;28;20033;-78
2024/03/09 04:33:12;;;;;;;38.70;21.17;;;5.40;79.60;;;;;;5028861;28;20026;-78
2024/03/09 04:35:39;;;;;;;36.93;21.40;;;5.40;79.70;;;;;;5013260;28;20022;-77
2024/03/09 04:38:05;;;;;;;38.17;21.57;;;5.40;79.70;;;;;;5013314;28;20403;-78
2024/03/09 04:40:33;;;;;;;36.10;21.13;;;5.40;79.80;;;;;;5013068;28;20025;-78
2024/03/09 04:43:05;;;;;;;38.03;21.73;;;5.50;79.80;;;;;;5013085;28;20045;-77
2024/03/09 04:45:33;;;;;;;36.77;21.33;;;5.50;79.70;;;;;;5013184;28;20075;-78
2024/03/09 04:47:59;;;;;;;37.40;21.07;;;5.50;79.70;;;;;;5012048;28;20050;-78
2024/03/09 04:50:28;;;;;;;34.47;19.40;;;5.50;79.70;;;;;;5013204;28;20108;-78
2024/03/09 04:52:54;;;;;;;37.77;21.07;;;5.40;79.60;;;;;;5028540;28;20018;-78
2024/03/09 04:55:42;;;;;;;38.53;21.77;;;5.50;79.80;;;;;;5028310;28;20113;-77
2024/03/09 04:58:17;;;;;;;36.53;20.23;;;5.40;79.70;;;;;;5013275;28;20026;-78
2024/03/09 05:00:44;;;;;;;37.00;21.13;;;5.50;79.80;;;;;;5012828;28;20018;-77
2024/03/09 05:03:13;;;;;;;42.30;20.77;;;5.50;79.80;;;;;;5012694;28;20027;-78
2024/03/09 05:05:40;;;;;;;34.60;19.20;;;5.50;79.80;;;;;;5011839;28;20026;-77
2024/03/09 05:08:06;;;;;;;39.27;21.30;;;5.50;79.70;;;;;;5011846;28;20041;-77
2024/03/09 05:10:32;;;;;;;36.43;20.27;;;5.50;79.90;;;;;;5013126;28;20166;-77
2024/03/09 05:12:58;;;;;;;37.33;20.80;;;5.50;79.90;;;;;;5005264;28;20030;-77
2024/03/09 05:15:25;;;;;;;38.77;22.33;;;5.50;79.90;;;;;;5011522;28;20056;-78
2024/03/09 05:17:52;;;;;;;34.37;20.60;;;5.40;79.70;;;;;;5012603;28;20118;-77
2024/03/09 05:20:22;;;;;;;35.70;20.37;;;5.40;79.70;;;;;;5012855;28;20049;-77
2024/03/09 05:22:49;;;;;;;34.07;20.10;;;5.40;79.70;;;;;;5013021;28;20030;-77
2024/03/09 05:25:15;;;;;;;37.47;20.23;;;5.40;79.60;;;;;;5013219;28;20030;-78
2024/03/09 05:27:44;;;;;;;37.20;20.67;;;5.40;79.70;;;;;;5013164;28;20037;-78
2024/03/09 05:30:14;;;;;;;35.93;20.70;;;5.40;79.60;;;;;;5028064;28;20037;-77
2024/03/09 05:32:53;;;;;;;35.50;20.57;;;5.30;79.70;;;;;;5012783;28;20033;-77
2024/03/09 05:35:26;;;;;;;36.47;20.53;;;5.30;79.70;;;;;;5012957;28;20084;-77
2024/03/09 05:37:52;;;;;;;37.80;19.23;;;5.20;79.60;;;;;;5011667;28;20025;-77
2024/03/09 05:40:18;;;;;;;38.60;20.13;;;5.30;79.80;;;;;;5013258;28;20101;-78
2024/03/09 05:42:48;;;;;;;35.20;19.13;;;5.20;79.80;;;;;;5011585;28;20026;-78
2024/03/09 05:45:20;;;;;;;35.30;19.67;;;5.20;79.80;;;;;;5012622;28;20037;-78
2024/03/09 05:47:57;;;;;;;34.60;20.13;;;5.20;79.80;;;;;;5012942;28;20030;-78
2024/03/09 05:50:24;;;;;;;34.47;19.13;;;5.20;80.00;;;;;;5012905;28;20065;-77
2024/03/09 05:52:52;;;;;;;36.87;21.47;;;5.20;80.70;;;;;;5014955;28;20030;-77
2024/03/09 05:55:19;;;;;;;34.53;19.60;;;5.20;80.00;;;;;;5016632;28;20029;-77
2024/03/09 05:57:49;;;;;;;41.10;22.13;;;5.20;80.10;;;;;;5016610;28;20072;-77
2024/03/09 06:00:17;;;;;;;34.50;19.57;;;5.20;80.20;;;;;;5016379;28;20488;-77
2024/03/09 06:02:44;;;;;;;41.07;21.07;;;5.20;80.80;;;;;;5016561;28;20057;-78
2024/03/09 06:05:10;;;;;;;36.50;19.97;;;5.20;80.20;;;;;;5016420;28;20072;-78
2024/03/09 06:07:41;;;;;;;34.83;20.30;;;5.20;80.30;;;;;;5016216;28;20112;-77
2024/03/09 06:10:08;;;;;;;37.63;20.73;;;5.10;80.20;;;;;;5016270;28;20030;-77
2024/03/09 06:12:38;;;;;;;35.90;20.03;;;5.10;80.30;;;;;;5016325;28;20028;-77
2024/03/09 06:15:05;;;;;;;33.33;19.97;;;5.20;80.50;;;;;;5016038;28;20026;-78
2024/03/09 06:17:31;;;;;;;35.73;20.73;;;5.20;80.50;;;;;;5015977;28;20080;-77
2024/03/09 06:20:02;;;;;;;34.57;19.00;;;5.20;80.60;;;;;;5012501;28;20058;-78
2024/03/09 06:22:33;;;;;;;39.30;21.57;;;5.20;80.70;;;;;;5006451;28;20022;-77
2024/03/09 06:24:59;;;;;;;37.83;20.83;;;5.20;80.70;;;;;;5013221;28;20021;-78
2024/03/09 06:27:25;;;;;;;33.60;19.33;;;5.20;80.70;;;;;;5015117;28;20417;-77
2024/03/09 06:29:51;;;;;;;34.93;20.50;;;5.30;80.80;;;;;;5015485;28;20030;-78
2024/03/09 06:32:17;;;;;;;38.60;20.60;;;5.30;80.90;;;;;;5014120;28;20029;-78
2024/03/09 06:34:43;;;;;;;36.37;21.00;;;5.30;80.90;;;;;;5014333;28;20022;-77
2024/03/09 06:37:09;;;;;;;38.63;20.17;;;5.40;81.00;;;;;;5015750;28;20053;-77
2024/03/09 06:39:38;;;;;;;33.80;19.10;;;5.40;81.00;;;;;;5010809;28;20504;-79
2024/03/09 06:42:09;;;;;;;35.97;19.93;;;5.40;81.00;;;;;;5015389;28;20022;-78
2024/03/09 06:44:36;;;;;;;34.50;19.90;;;5.40;81.00;;;;;;5015264;28;20030;-78
2024/03/09 06:47:06;;;;;;;31.57;18.53;;;5.50;81.10;;;;;;5015772;28;20477;-79
2024/03/09 06:49:35;;;;;;;31.17;17.77;;;5.50;81.10;;;;;;5015537;28;20034;-79
2024/03/09 06:52:02;;;;;;;36.50;19.90;;;5.50;81.10;;;;;;5015544;28;20024;-79
2024/03/09 06:54:29;;;;;;;33.70;19.90;;;5.60;81.10;;;;;;5015479;28;20030;-78
2024/03/09 06:56:55;;;;;;;35.17;21.33;;;5.60;81.10;;;;;;5015543;28;20021;-78
2024/03/09 06:59:21;;;;;;;34.27;18.03;;;5.60;81.10;;;;;;5015232;28;20036;-79
2024/03/09 07:01:50;;;;;;;33.13;19.47;;;5.60;81.10;;;;;;5022722;28;20030;-78
2024/03/09 07:04:18;;;;;;;30.90;17.50;;;5.70;81.20;;;;;;5024667;28;20024;-78
2024/03/09 07:06:44;;;;;;;29.63;17.27;;;5.70;81.20;;;;;;5014148;28;20435;-77
2024/03/09 07:09:11;;;;;;;34.43;19.33;;;5.80;81.20;;;;;;5014885;28;20054;-78
2024/03/09 07:11:38;;;;;;;32.63;18.20;;;5.80;81.20;;;;;;5012639;28;20030;-78
2024/03/09 07:14:04;;;;;;;31.50;17.63;;;5.90;81.00;;;;;;5024169;28;20456;-78
2024/03/09 07:16:30;;;;;;;29.10;17.40;;;5.90;80.90;;;;;;5019640;28;20021;-78
2024/03/09 07:18:56;;;;;;;31.93;18.27;;;5.90;80.90;;;;;;5026546;28;20400;-77
2024/03/09 07:21:23;;;;;;;33.53;19.67;;;5.90;80.90;;;;;;5026288;28;20028;-78
2024/03/09 07:23:50;;;;;;;31.00;17.13;;;6.00;80.80;;;;;;5014932;28;20424;-78
2024/03/09 07:26:15;;;;;;;30.43;17.90;;;6.00;80.70;;;;;;5015006;28;20641;-78
2024/03/09 07:28:43;;;;;;;34.60;18.70;;;6.10;80.70;;;;;;5031337;28;20113;-78
2024/03/09 07:31:12;;;;;;;30.03;17.97;;;6.10;80.70;;;;;;5038389;28;20064;-78
2024/03/09 07:33:37;;;;;;;32.30;18.27;;;6.10;80.60;;;;;;5020993;28;20405;-78
2024/03/09 07:36:04;;;;;;;32.67;17.97;;;6.20;80.70;;;;;;5037934;28;20076;-78
2024/03/09 07:38:30;;;;;;;32.87;18.87;;;6.30;80.60;;;;;;5024347;28;20092;-77
2024/03/09 07:40:56;;;;;;;30.77;17.87;;;6.30;80.50;;;;;;5022451;28;20112;-78
2024/03/09 07:43:22;;;;;;;33.70;18.00;;;6.30;80.40;;;;;;5024747;28;20064;-77
2024/03/09 07:45:48;;;;;;;31.63;17.57;;;6.40;80.50;;;;;;5023135;28;20445;-79
2024/03/09 07:48:14;;;;;;;31.40;17.83;;;6.40;80.40;;;;;;5023709;28;20057;-79
2024/03/09 07:50:40;;;;;;;30.77;17.90;;;6.50;80.40;;;;;;5024242;28;20042;-79
2024/03/09 07:53:06;;;;;;;30.57;18.50;;;6.50;80.30;;;;;;5025126;28;20101;-79
2024/03/09 07:55:32;;;;;;;33.40;20.10;;;6.50;80.20;;;;;;5028754;28;20492;-77
2024/03/09 07:57:58;;;;;;;31.73;18.83;;;6.60;80.20;;;;;;5017655;28;20097;-78
2024/03/09 08:00:28;;;;;;;30.83;18.73;;;6.60;80.20;;;;;;5012684;28;20049;-78
2024/03/09 08:02:55;;;;;;;31.50;17.73;;;6.60;80.00;;;;;;5014174;28;20030;-78
2024/03/09 08:05:25;;;;;;;32.90;18.30;;;6.70;80.00;;;;;;5014051;28;20105;-78
2024/03/09 08:07:51;;;;;;;29.60;18.27;;;6.70;79.90;;;;;;5014064;28;20363;-79
2024/03/09 08:10:23;;;;;;;29.13;17.83;;;6.70;79.80;;;;;;5013816;28;20037;-78
2024/03/09 08:12:49;;;;;;;29.17;17.53;;;6.80;79.80;;;;;;5013660;28;20076;-77
2024/03/09 08:15:16;;;;;;;28.63;17.23;;;6.80;79.70;;;;;;5012027;28;20030;-78
2024/03/09 08:17:43;;;;;;;29.37;18.00;;;6.80;79.50;;;;;;5014064;28;20040;-78
2024/03/09 08:20:09;;;;;;;26.50;16.77;;;6.90;79.60;;;;;;5015861;28;20049;-77
2024/03/09 08:22:39;;;;;;;31.60;18.90;;;6.90;79.50;;;;;;5025342;28;20018;-79
2024/03/09 08:25:11;;;;;;;28.73;18.07;;;7.00;79.50;;;;;;5026825;28;20031;-79
2024/03/09 08:27:38;;;;;;;29.93;17.57;;;7.10;79.50;;;;;;5033174;28;20408;-78
2024/03/09 08:30:14;;;;;;;30.47;18.00;;;7.10;79.50;;;;;;5033212;28;20500;-78
2024/03/09 08:32:44;;;;;;;30.47;17.73;;;7.20;79.50;;;;;;5033336;28;20101;-78
2024/03/09 08:35:18;;;;;;;27.30;16.50;;;7.20;79.50;;;;;;5048640;28;20017;-78
2024/03/09 08:37:47;;;;;;;27.65;17.13;;;7.30;79.50;;;;;;5033119;28;20017;-78
2024/03/09 08:40:17;;;;;;;24.97;16.50;;;7.40;79.50;;;;;;5033265;28;20030;-79
2024/03/09 08:42:51;;;;;;;30.20;17.93;;;7.50;79.50;;;;;;5032965;28;20083;-78
2024/03/09 08:45:18;;;;;;;;;;;7.60;79.40;;;;;;5033660;28;20087;-79
2024/03/09 08:47:44;;;;;;;26.43;15.33;;;7.70;79.30;;;;;;5033084;28;19905;-78
2024/03/09 08:50:10;;;;;;;26.53;16.23;;;7.80;79.20;;;;;;5033517;28;20053;-78
2024/03/09 08:52:37;;;;;;;28.47;16.60;;;7.80;79.10;;;;;;5026042;28;20060;-76
2024/03/09 08:55:03;;;;;;;28.73;16.87;;;7.90;79.00;;;;;;5032197;28;20503;-77
2024/03/09 08:57:29;;;;;;;26.77;15.73;;;8.00;78.80;;;;;;5027450;28;20033;-77
2024/03/09 08:59:59;;;;;;;27.37;17.00;;;8.10;78.70;;;;;;5022053;28;20022;-77
2024/03/09 09:02:29;;;;;;;25.97;16.47;;;8.10;78.60;;;;;;5025080;28;20029;-77
2024/03/09 09:04:55;;;;;;;27.57;16.77;;;8.20;78.50;;;;;;5032553;28;20033;-77
2024/03/09 09:07:21;;;;;;;26.63;17.00;;;8.30;78.30;;;;;;5047826;28;20155;-78
2024/03/09 09:09:47;;;;;;;26.37;16.80;;;8.40;78.10;;;;;;5032868;28;20026;-78
2024/03/09 09:12:13;;;;;;;27.33;16.70;;;8.40;78.00;;;;;;5026159;28;20028;-77
2024/03/09 09:14:42;;;;;;;27.70;17.03;;;8.50;77.60;;;;;;5022120;28;20101;-77
2024/03/09 09:17:08;;;;;;;29.83;16.60;;;8.50;77.40;;;;;;5021300;28;20028;-77
2024/03/09 09:19:40;;;;;;;30.00;16.77;;;8.50;77.20;;;;;;5014143;28;20516;-77
2024/03/09 09:22:07;;;;;;;29.00;16.33;;;8.50;77.10;;;;;;5003485;28;20021;-78
2024/03/09 09:24:33;;;;;;;24.67;15.50;;;8.50;77.00;;;;;;5012889;28;20168;-78
2024/03/09 09:26:59;;;;;;;26.63;16.37;;;8.60;77.00;;;;;;5026651;28;20494;-78
2024/03/09 09:29:31;;;;;;;26.37;15.83;;;8.60;77.00;;;;;;5036548;28;20107;-78
2024/03/09 09:32:04;;;;;;;29.27;17.00;;;8.70;76.90;;;;;;5034780;28;20033;-78
2024/03/09 09:34:30;;;;;;;27.37;16.47;;;8.70;76.80;;;;;;5036603;28;20086;-77
2024/03/09 09:37:00;;;;;;;27.53;16.67;;;8.80;76.60;;;;;;5035965;28;20033;-78
2024/03/09 09:39:29;;;;;;;30.67;18.00;;;8.80;76.50;;;;;;5035992;28;20026;-78
2024/03/09 09:41:56;;;;;;;27.43;16.13;;;8.80;76.30;;;;;;5036108;28;20431;-78
2024/03/09 09:44:22;;;;;;;26.23;15.37;;;8.80;76.30;;;;;;5036151;28;20029;-77
2024/03/09 09:46:48;;;;;;;26.27;15.70;;;8.90;76.20;;;;;;5036581;28;20025;-78
2024/03/09 09:49:14;;;;;;;25.13;15.13;;;8.90;76.10;;;;;;5036568;28;20100;-77
2024/03/09 09:51:41;;;;;;;27.17;16.00;;;9.00;76.20;;;;;;5036246;28;20488;-77
2024/03/09 09:54:08;;;;;;;28.60;17.07;;;9.10;76.20;;;;;;5036227;28;20384;-78
2024/03/09 09:56:34;;;;;;;25.00;15.67;;;9.10;76.20;;;;;;5051766;28;20052;-77
2024/03/09 09:59:01;;;;;;;24.37;14.00;;;9.20;76.10;;;;;;5036004;28;20032;-78
2024/03/09 10:01:27;;;;;;;24.63;15.03;;;9.30;76.10;;;;;;5032814;28;20389;-79
2024/03/09 10:03:52;;;;;;;27.23;16.23;;;9.40;76.00;;;;;;5047763;28;20048;-78
2024/03/09 10:06:22;;;;;;;25.37;15.87;;;9.60;75.90;;;;;;5022676;28;20038;-77
2024/03/09 10:08:49;;;;;;;24.00;15.57;;;9.80;75.60;;;;;;5016289;28;20014;-74
2024/03/09 10:11:16;;;;;;;23.20;14.10;;;10.10;75.60;;;;;;5016128;28;20056;-74
2024/03/09 10:13:45;;;;;;;22.10;13.97;;;10.50;75.80;;;;;;5016099;28;20025;-73
2024/03/09 10:16:13;;;;;;;21.73;13.55;;;10.90;75.90;;;;;;5016311;28;20021;-74
2024/03/09 10:18:47;;;;;;;20.80;12.38;;;11.30;76.10;;;;;;5015973;28;20050;-75
2024/03/09 10:21:14;;;;;;;17.17;11.13;;;11.90;76.50;;;;;;5014862;28;20477;-75
2024/03/09 10:23:40;;;;;;;19.20;10.68;;;12.50;77.40;;;;;;5014075;28;20030;-73
2024/03/09 10:26:10;;;;;;;18.35;10.40;;;13.20;77.70;;;;;;5003853;28;20113;-75
2024/03/09 10:28:37;;;;;;;16.73;10.43;;;14.10;77.30;;;;;;5006986;28;20030;-75
2024/03/09 10:31:09;;;;;;;15.38;9.85;;;14.90;76.90;;;;;;5010955;28;20440;-74
2024/03/09 10:33:36;;;;;;;14.18;8.77;;;15.80;76.00;;;;;;4996143;28;20537;-75
2024/03/09 10:36:03;;;;;;;13.02;8.88;;;16.70;75.20;;;;;;5005013;28;20044;-75
2024/03/09 10:38:30;;;;;;;14.43;9.23;;;17.50;73.00;;;;;;5008017;28;20018;-76
2024/03/09 10:41:00;;;;;;;11.57;8.23;;;18.20;71.60;;;;;;5008554;28;20481;-77
2024/03/09 10:43:29;;;;;;;13.73;9.57;;;18.80;70.00;;;;;;5022217;28;20030;-77
2024/03/09 10:45:57;;;;;;;11.05;8.23;;;19.50;67.60;;;;;;4995994;28;20085;-76
2024/03/09 10:48:26;;;;;;;10.80;7.90;;;20.10;66.10;;;;;;4996059;28;20065;-74
2024/03/09 10:50:54;;;;;;;11.00;8.02;;;20.70;64.00;;;;;;4995821;28;20109;-77
2024/03/09 10:53:46;;;;;;;12.45;9.35;;;21.30;62.90;;;;;;4995415;28;20034;-75
2024/03/09 10:56:22;;;;;;;12.75;9.18;;;21.90;58.20;;;;;;4995733;28;20050;-75
2024/03/09 10:58:52;;;;;;;11.25;8.25;;;22.40;56.70;;;;;;4998131;28;20030;-74
2024/03/09 11:01:22;;;;;;;12.65;10.25;;;22.60;54.40;;;;;;5007219;28;20029;-79
2024/03/09 11:03:49;;;;;;;12.75;10.07;;;22.40;52.00;;;;;;5016084;28;20038;-79
2024/03/09 11:06:18;;;;;;;12.82;9.70;;;22.10;50.90;;;;;;5014696;28;20100;-79
2024/03/09 11:08:53;;;;;;;14.52;9.50;;;21.90;51.00;;;;;;5013513;28;20076;-79
2024/03/09 11:11:24;;;;;;;13.55;9.40;;;21.70;50.50;;;;;;5004774;28;20108;-80
2024/03/09 11:13:53;;;;;;;12.52;8.15;;;21.40;50.60;;;;;;5015224;28;20559;-80
2024/03/09 11:16:24;;;;;;;13.48;9.57;;;21.20;51.00;;;;;;5018693;28;20053;-79
2024/03/09 11:18:56;;;;;;;13.20;9.73;;;21.10;50.30;;;;;;5034845;28;20412;-78
2024/03/09 11:21:30;;;;;;;12.07;9.07;;;20.80;49.90;;;;;;5033052;28;20384;-80
2024/03/09 11:24:07;;;;;;;14.43;10.15;;;20.70;50.10;;;;;;5034216;28;20480;-79
2024/03/09 11:26:43;;;;;;;13.13;9.65;;;20.40;49.30;;;;;;5034519;28;20040;-78
2024/03/09 11:29:13;;;;;;;13.98;9.95;;;20.10;49.80;;;;;;5034468;28;20010;-80
2024/03/09 11:31:42;;;;;;;14.18;10.32;;;19.80;49.50;;;;;;5025389;28;20079;-80
2024/03/09 11:34:26;;;;;;;13.85;10.20;;;19.50;49.60;;;;;;5020009;28;20071;-80
2024/03/09 11:36:52;;;;;;;15.65;11.05;;;19.30;49.90;;;;;;5020396;28;20192;-80
2024/03/09 11:39:22;;;;;;;13.68;10.45;;;19.20;50.30;;;;;;5020903;28;20360;-80
2024/03/09 11:41:50;;;;;;;13.75;10.10;;;19.30;50.90;;;;;;5024243;28;20056;-78
2024/03/09 11:44:22;;;;;;;16.13;10.13;;;19.60;51.10;;;;;;5014289;28;20539;-78
2024/03/09 11:46:49;;;;;;;16.40;11.73;;;19.70;50.90;;;;;;5014200;28;20429;-79
2024/03/09 11:49:16;;;;;;;15.48;11.05;;;19.90;50.60;;;;;;5013301;28;20477;-79
2024/03/09 11:51:42;;;;;;;16.58;10.63;;;20.20;50.80;;;;;;5013733;28;20080;-78
2024/03/09 11:54:10;;;;;;;13.80;10.13;;;20.30;50.20;;;;;;5014668;28;20076;-79
2024/03/09 11:56:38;;;;;;;16.92;10.55;;;20.50;49.60;;;;;;5012588;28;20105;-79
2024/03/09 11:59:06;;;;;;;14.30;9.55;;;20.70;49.40;;;;;;5009782;28;20050;-79
2024/03/09 12:01:34;;;;;;;14.82;10.23;;;20.70;48.90;;;;;;5010035;28;20014;-79
2024/03/09 12:04:01;;;;;;;15.38;10.38;;;20.50;48.60;;;;;;5019105;28;20048;-79
2024/03/09 12:06:27;;;;;;;15.77;11.02;;;20.40;48.60;;;;;;5023589;28;20084;-79
2024/03/09 12:08:57;;;;;;;13.68;10.10;;;20.20;48.60;;;;;;5018867;28;20038;-78
2024/03/09 12:11:23;;;;;;;13.30;9.60;;;20.10;49.10;;;;;;5016727;28;20022;-79
2024/03/09 12:13:55;;;;;;;16.35;10.68;;;20.00;49.00;;;;;;5023065;28;20468;-78
2024/03/09 12:16:31;;;;;;;16.05;10.38;;;19.90;48.70;;;;;;5022397;28;20035;-77
2024/03/09 12:19:00;;;;;;;14.88;11.18;;;19.70;48.60;;;;;;5021714;28;20046;-78
2024/03/09 12:21:27;;;;;;;18.95;11.85;;;19.50;48.70;;;;;;5024345;28;20029;-78
2024/03/09 12:23:58;;;;;;;16.05;10.82;;;19.30;49.10;;;;;;5018715;28;20041;-77
2024/03/09 12:26:25;;;;;;;14.45;9.95;;;19.20;49.20;;;;;;5023590;28;20014;-77
2024/03/09 12:28:53;;;;;;;15.52;9.90;;;19.00;49.30;;;;;;5020405;28;20488;-76
2024/03/09 12:31:19;;;;;;;13.63;9.23;;;18.80;49.60;;;;;;5027292;28;20037;-77
2024/03/09 12:33:46;;;;;;;14.35;9.48;;;18.80;49.90;;;;;;5031333;28;20044;-77
2024/03/09 12:36:17;;;;;;;14.77;9.65;;;18.90;50.20;;;;;;5013659;28;20022;-79
2024/03/09 12:38:44;;;;;;;13.75;9.63;;;19.10;50.60;;;;;;5003897;28;20030;-77
2024/03/09 12:41:29;;;;;;;13.18;9.75;;;19.60;50.90;;;;;;5010735;28;20022;-77